sensor_id;sensor_type;location;lat;lon;timestamp;pressure;altitude;pressure_sealevel;temperature;humidity
11605;BME280;5858;43.076;25.626;2024-03-02T00:47:33;98844.03;;;9.83;99.56
11605;BME280;5858;43.076;25.626;2024-03-02T00:49:40;98755.16;;;9.32;99.71
11605;BME280;5858;43.076;25.626;2024-03-02T00:52:24;98685.63;;;8.82;99.58
11605;BME280;5858;43.076;25.626;2024-03-02T05:15:29;98652.03;;;8.08;100.00
11605;BME280;5858;43.076;25.626;2024-03-02T05:22:13;98650.00;;;7.95;100.00
11605;BME280;5858;43.076;25.626;2024-03-02T05:28:30;98853.44;;;9.07;100.00
11605;BME280;5858;43.076;25.626;2024-03-02T06:03:25;98757.09;;;8.43;100.00
11605;BME280;5858;43.076;25.626;2024-03-02T06:29:28;98871.75;;;9.10;100.00
11605;BME280;5858;43.076;25.626;2024-03-02T06:46:16;98861.53;;;9.13;100.00
11605;BME280;5858;43.076;25.626;2024-03-02T06:49:36;98859.53;;;9.37;100.00
11605;BME280;5858;43.076;25.626;2024-03-02T06:59:42;98812.91;;;9.18;100.00
11605;BME280;5858;43.076;25.626;2024-03-02T07:02:08;98852.75;;;9.70;100.00
11605;BME280;5858;43.076;25.626;2024-03-02T07:04:35;98800.44;;;9.40;100.00
11605;BME280;5858;43.076;25.626;2024-03-02T07:07:05;98850.34;;;9.75;100.00
11605;BME280;5858;43.076;25.626;2024-03-02T07:12:24;98795.31;;;9.60;100.00
11605;BME280;5858;43.076;25.626;2024-03-02T07:14:51;98689.56;;;9.23;99.58
11605;BME280;5858;43.076;25.626;2024-03-02T07:17:38;98848.72;;;10.17;99.13
11605;BME280;5858;43.076;25.626;2024-03-02T07:20:06;98740.03;;;9.39;99.41
11605;BME280;5858;43.076;25.626;2024-03-02T07:22:33;98853.94;;;10.25;98.90
11605;BME280;5858;43.076;25.626;2024-03-02T07:25:03;98756.34;;;9.65;98.81
11605;BME280;5858;43.076;25.626;2024-03-02T07:27:34;98785.66;;;10.01;98.72
11605;BME280;5858;43.076;25.626;2024-03-02T07:30:02;98754.84;;;10.05;98.27
11605;BME280;5858;43.076;25.626;2024-03-02T07:32:29;98718.03;;;9.79;95.47
11605;BME280;5858;43.076;25.626;2024-03-02T07:34:59;98843.22;;;10.75;95.75
11605;BME280;5858;43.076;25.626;2024-03-02T07:37:29;98854.06;;;10.94;95.64
11605;BME280;5858;43.076;25.626;2024-03-02T07:39:58;98797.88;;;10.38;94.09
11605;BME280;5858;43.076;25.626;2024-03-02T07:42:25;98781.00;;;10.38;92.54
11605;BME280;5858;43.076;25.626;2024-03-02T07:44:52;98752.78;;;10.29;93.33
11605;BME280;5858;43.076;25.626;2024-03-02T07:47:22;98824.09;;;10.78;93.09
11605;BME280;5858;43.076;25.626;2024-03-02T07:49:49;98832.94;;;11.13;92.22
11605;BME280;5858;43.076;25.626;2024-03-02T07:55:17;98792.09;;;10.35;92.60
11605;BME280;5858;43.076;25.626;2024-03-02T07:57:44;98870.25;;;10.86;92.96
11605;BME280;5858;43.076;25.626;2024-03-02T08:00:11;98855.34;;;10.70;93.29
11605;BME280;5858;43.076;25.626;2024-03-02T08:03:03;98807.28;;;10.06;94.60
11605;BME280;5858;43.076;25.626;2024-03-02T08:05:30;98699.41;;;9.43;95.58
11605;BME280;5858;43.076;25.626;2024-03-02T08:08:15;98726.38;;;9.70;94.82
11605;BME280;5858;43.076;25.626;2024-03-02T08:10:49;98838.94;;;10.52;93.90
11605;BME280;5858;43.076;25.626;2024-03-02T08:13:16;98891.09;;;10.63;94.53
11605;BME280;5858;43.076;25.626;2024-03-02T08:15:43;98826.84;;;10.56;94.64
11605;BME280;5858;43.076;25.626;2024-03-02T08:18:12;98778.75;;;10.14;94.04
11605;BME280;5858;43.076;25.626;2024-03-02T08:20:52;98705.16;;;9.62;94.99
11605;BME280;5858;43.076;25.626;2024-03-02T08:23:20;98770.34;;;10.17;94.51
11605;BME280;5858;43.076;25.626;2024-03-02T08:25:48;98661.00;;;9.44;94.40
11605;BME280;5858;43.076;25.626;2024-03-02T08:28:23;98772.78;;;10.12;93.46
11605;BME280;5858;43.076;25.626;2024-03-02T08:34:50;98789.16;;;10.51;93.65
11605;BME280;5858;43.076;25.626;2024-03-02T08:37:54;98806.31;;;10.63;92.50
11605;BME280;5858;43.076;25.626;2024-03-02T08:40:41;98749.03;;;10.23;93.41
11605;BME280;5858;43.076;25.626;2024-03-02T08:46:43;98867.50;;;10.73;92.08
11605;BME280;5858;43.076;25.626;2024-03-02T08:49:17;98854.38;;;10.85;91.83
11605;BME280;5858;43.076;25.626;2024-03-02T08:52:05;98688.31;;;10.17;91.05
11605;BME280;5858;43.076;25.626;2024-03-02T08:54:32;98856.78;;;10.73;91.69
11605;BME280;5858;43.076;25.626;2024-03-02T08:56:59;98858.34;;;10.89;92.45
11605;BME280;5858;43.076;25.626;2024-03-02T08:59:42;98879.09;;;10.87;93.17
11605;BME280;5858;43.076;25.626;2024-03-02T09:02:41;98745.75;;;9.78;93.25
11605;BME280;5858;43.076;25.626;2024-03-02T09:05:21;98924.59;;;11.15;93.48
11605;BME280;5858;43.076;25.626;2024-03-02T09:08:03;98858.06;;;11.12;91.29
11605;BME280;5858;43.076;25.626;2024-03-02T09:10:33;98910.50;;;11.34;91.46
11605;BME280;5858;43.076;25.626;2024-03-02T09:13:17;98742.22;;;10.49;90.50
11605;BME280;5858;43.076;25.626;2024-03-02T09:15:53;98851.03;;;11.52;89.43
11605;BME280;5858;43.076;25.626;2024-03-02T09:22:28;98737.66;;;10.84;88.87
11605;BME280;5858;43.076;25.626;2024-03-02T09:28:23;98858.03;;;12.07;86.92
11605;BME280;5858;43.076;25.626;2024-03-02T09:30:55;98797.47;;;11.52;86.66
11605;BME280;5858;43.076;25.626;2024-03-02T09:37:02;98781.59;;;11.57;84.72
11605;BME280;5858;43.076;25.626;2024-03-02T09:42:50;98891.66;;;12.23;83.99
11605;BME280;5858;43.076;25.626;2024-03-02T09:45:38;98891.72;;;12.43;83.61
11605;BME280;5858;43.076;25.626;2024-03-02T09:50:22;98884.22;;;12.12;84.56
11605;BME280;5858;43.076;25.626;2024-03-02T09:51:29;98933.50;;;11.97;85.27
11605;BME280;5858;43.076;25.626;2024-03-02T09:54:07;98845.22;;;11.89;85.53
11605;BME280;5858;43.076;25.626;2024-03-02T09:56:34;98665.59;;;10.76;85.89
11605;BME280;5858;43.076;25.626;2024-03-02T09:59:07;98699.47;;;10.55;86.20
11605;BME280;5858;43.076;25.626;2024-03-02T10:02:02;98819.13;;;11.57;86.11
11605;BME280;5858;43.076;25.626;2024-03-02T10:04:40;98852.84;;;11.92;84.83
11605;BME280;5858;43.076;25.626;2024-03-02T10:07:21;98705.81;;;10.95;85.52
11605;BME280;5858;43.076;25.626;2024-03-02T10:09:52;98803.22;;;11.42;84.10
11605;BME280;5858;43.076;25.626;2024-03-02T10:12:32;98837.81;;;12.05;84.16
11605;BME280;5858;43.076;25.626;2024-03-02T10:15:27;98822.81;;;11.56;85.19
11605;BME280;5858;43.076;25.626;2024-03-02T10:21:19;98762.84;;;11.50;83.90
11605;BME280;5858;43.076;25.626;2024-03-02T10:23:49;98860.94;;;12.25;82.09
11605;BME280;5858;43.076;25.626;2024-03-02T10:26:17;98903.47;;;12.35;82.84
11605;BME280;5858;43.076;25.626;2024-03-02T10:29:04;98927.84;;;12.67;81.38
11605;BME280;5858;43.076;25.626;2024-03-02T10:31:38;98869.22;;;12.31;81.99
11605;BME280;5858;43.076;25.626;2024-03-02T10:34:22;98858.28;;;12.45;82.49
11605;BME280;5858;43.076;25.626;2024-03-02T10:36:55;98844.25;;;12.30;83.08
11605;BME280;5858;43.076;25.626;2024-03-02T10:39:24;98769.53;;;12.07;82.40
11605;BME280;5858;43.076;25.626;2024-03-02T10:41:52;98781.72;;;12.36;80.94
11605;BME280;5858;43.076;25.626;2024-03-02T10:44:19;98813.03;;;12.69;80.04
11605;BME280;5858;43.076;25.626;2024-03-02T10:46:49;98799.63;;;12.62;80.47
11605;BME280;5858;43.076;25.626;2024-03-02T10:49:16;98752.38;;;12.48;80.42
11605;BME280;5858;43.076;25.626;2024-03-02T10:51:43;98874.47;;;13.36;79.79
11605;BME280;5858;43.076;25.626;2024-03-02T10:54:10;98870.00;;;13.68;77.98
11605;BME280;5858;43.076;25.626;2024-03-02T10:56:39;98842.50;;;13.73;77.09
11605;BME280;5858;43.076;25.626;2024-03-02T10:59:26;98849.19;;;13.50;76.00
11605;BME280;5858;43.076;25.626;2024-03-02T11:02:18;98740.38;;;12.64;77.49
11605;BME280;5858;43.076;25.626;2024-03-02T11:04:49;98675.44;;;12.35;77.53
11605;BME280;5858;43.076;25.626;2024-03-02T11:07:20;98682.03;;;12.39;77.19
11605;BME280;5858;43.076;25.626;2024-03-02T11:09:54;98871.88;;;13.61;76.91
11605;BME280;5858;43.076;25.626;2024-03-02T11:12:29;98898.13;;;13.72;75.62
11605;BME280;5858;43.076;25.626;2024-03-02T11:15:03;98718.47;;;12.67;74.47
11605;BME280;5858;43.076;25.626;2024-03-02T11:17:33;98857.59;;;13.67;73.62
11605;BME280;5858;43.076;25.626;2024-03-02T11:20:00;98861.81;;;13.50;74.38
11605;BME280;5858;43.076;25.626;2024-03-02T11:22:40;98875.72;;;13.85;75.19
11605;BME280;5858;43.076;25.626;2024-03-02T11:25:22;98811.78;;;13.49;73.47
11605;BME280;5858;43.076;25.626;2024-03-02T11:28:08;98878.34;;;13.98;75.28
11605;BME280;5858;43.076;25.626;2024-03-02T11:30:51;98800.91;;;13.75;73.62
11605;BME280;5858;43.076;25.626;2024-03-02T11:33:29;98705.69;;;13.13;73.71
11605;BME280;5858;43.076;25.626;2024-03-02T11:35:57;98692.44;;;12.80;74.47
11605;BME280;5858;43.076;25.626;2024-03-02T11:38:28;98752.34;;;13.32;75.21
11605;BME280;5858;43.076;25.626;2024-03-02T11:40:56;98760.28;;;13.52;73.86
11605;BME280;5858;43.076;25.626;2024-03-02T11:43:23;98842.31;;;13.99;73.41
11605;BME280;5858;43.076;25.626;2024-03-02T11:46:04;98854.06;;;14.36;72.28
11605;BME280;5858;43.076;25.626;2024-03-02T11:48:48;98698.44;;;13.27;72.97
11605;BME280;5858;43.076;25.626;2024-03-02T11:51:22;98806.47;;;14.05;70.94
11605;BME280;5858;43.076;25.626;2024-03-02T11:54:00;98782.34;;;13.61;72.38
11605;BME280;5858;43.076;25.626;2024-03-02T11:56:32;98863.63;;;14.32;72.42
11605;BME280;5858;43.076;25.626;2024-03-02T11:59:02;98874.53;;;14.44;71.40
11605;BME280;5858;43.076;25.626;2024-03-02T12:01:29;98784.28;;;14.10;70.69
11605;BME280;5858;43.076;25.626;2024-03-02T12:03:58;98690.22;;;13.47;71.96
11605;BME280;5858;43.076;25.626;2024-03-02T12:06:30;98848.69;;;14.36;71.37
11605;BME280;5858;43.076;25.626;2024-03-02T12:08:57;98767.06;;;13.93;70.89
11605;BME280;5858;43.076;25.626;2024-03-02T12:11:24;98734.97;;;13.66;69.98
11605;BME280;5858;43.076;25.626;2024-03-02T12:14:03;98688.53;;;13.52;71.41
11605;BME280;5858;43.076;25.626;2024-03-02T12:16:38;98795.09;;;14.03;71.92
11605;BME280;5858;43.076;25.626;2024-03-02T12:19:08;98849.28;;;14.45;72.10
11605;BME280;5858;43.076;25.626;2024-03-02T12:21:38;98804.28;;;13.96;71.82
11605;BME280;5858;43.076;25.626;2024-03-02T12:24:06;98832.66;;;14.16;72.20
11605;BME280;5858;43.076;25.626;2024-03-02T12:27:03;98806.31;;;14.00;71.99
11605;BME280;5858;43.076;25.626;2024-03-02T12:29:36;98829.84;;;13.80;73.96
11605;BME280;5858;43.076;25.626;2024-03-02T12:32:03;98824.41;;;13.86;73.45
11605;BME280;5858;43.076;25.626;2024-03-02T12:35:06;98870.78;;;14.13;73.40
11605;BME280;5858;43.076;25.626;2024-03-02T12:37:48;98823.72;;;13.60;74.06
11605;BME280;5858;43.076;25.626;2024-03-02T12:40:19;98875.31;;;13.81;74.24
11605;BME280;5858;43.076;25.626;2024-03-02T12:42:54;98725.50;;;12.61;75.51
11605;BME280;5858;43.076;25.626;2024-03-02T12:45:29;98710.88;;;12.57;76.26
11605;BME280;5858;43.076;25.626;2024-03-02T12:48:09;98797.63;;;13.15;75.96
11605;BME280;5858;43.076;25.626;2024-03-02T12:50:41;98779.06;;;13.07;76.86
11605;BME280;5858;43.076;25.626;2024-03-02T12:53:14;98708.78;;;12.66;76.03
11605;BME280;5858;43.076;25.626;2024-03-02T12:55:42;98856.31;;;13.32;75.67
11605;BME280;5858;43.076;25.626;2024-03-02T12:58:22;98858.94;;;13.45;76.56
11605;BME280;5858;43.076;25.626;2024-03-02T13:00:49;98851.94;;;13.37;76.93
11605;BME280;5858;43.076;25.626;2024-03-02T13:03:27;98872.13;;;13.53;75.74
11605;BME280;5858;43.076;25.626;2024-03-02T13:05:57;98857.84;;;13.59;76.86
11605;BME280;5858;43.076;25.626;2024-03-02T13:08:24;98831.06;;;13.39;76.16
11605;BME280;5858;43.076;25.626;2024-03-02T13:10:52;98839.34;;;13.38;76.17
11605;BME280;5858;43.076;25.626;2024-03-02T13:13:20;98806.72;;;13.21;75.83
11605;BME280;5858;43.076;25.626;2024-03-02T13:15:48;98779.63;;;13.16;76.14
11605;BME280;5858;43.076;25.626;2024-03-02T13:18:33;98809.41;;;13.28;75.65
11605;BME280;5858;43.076;25.626;2024-03-02T13:21:01;98860.56;;;13.52;76.07
11605;BME280;5858;43.076;25.626;2024-03-02T13:23:30;98846.13;;;13.47;77.27
11605;BME280;5858;43.076;25.626;2024-03-02T13:25:57;98790.44;;;13.03;76.42
11605;BME280;5858;43.076;25.626;2024-03-02T13:28:24;98864.31;;;13.45;77.24
11605;BME280;5858;43.076;25.626;2024-03-02T13:30:54;98797.63;;;13.15;76.66
11605;BME280;5858;43.076;25.626;2024-03-02T13:33:21;98784.84;;;13.11;76.02
11605;BME280;5858;43.076;25.626;2024-03-02T13:35:49;98800.59;;;12.94;77.31
11605;BME280;5858;43.076;25.626;2024-03-02T13:38:19;98847.00;;;13.14;76.91
11605;BME280;5858;43.076;25.626;2024-03-02T13:40:58;98845.19;;;13.02;77.81
11605;BME280;5858;43.076;25.626;2024-03-02T13:43:34;98723.53;;;12.17;78.37
11605;BME280;5858;43.076;25.626;2024-03-02T13:46:05;98794.06;;;12.57;78.34
11605;BME280;5858;43.076;25.626;2024-03-02T13:48:32;98885.50;;;12.95;78.74
11605;BME280;5858;43.076;25.626;2024-03-02T13:51:01;98887.78;;;12.85;79.63
11605;BME280;5858;43.076;25.626;2024-03-02T13:53:30;98838.44;;;12.26;80.22
11605;BME280;5858;43.076;25.626;2024-03-02T13:55:58;98828.75;;;12.32;80.44
11605;BME280;5858;43.076;25.626;2024-03-02T13:58:31;98722.03;;;11.55;80.93
11605;BME280;5858;43.076;25.626;2024-03-02T14:01:02;98804.81;;;11.97;81.22
11605;BME280;5858;43.076;25.626;2024-03-02T14:03:33;98890.88;;;12.49;81.96
11605;BME280;5858;43.076;25.626;2024-03-02T14:06:07;98744.69;;;11.39;82.68
11605;BME280;5858;43.076;25.626;2024-03-02T14:08:36;98832.03;;;12.08;82.63
11605;BME280;5858;43.076;25.626;2024-03-02T14:11:06;98829.56;;;12.13;82.48
11605;BME280;5858;43.076;25.626;2024-03-02T14:13:35;98818.41;;;12.03;81.82
11605;BME280;5858;43.076;25.626;2024-03-02T14:16:11;98897.91;;;12.56;81.75
11605;BME280;5858;43.076;25.626;2024-03-02T14:18:50;98886.75;;;12.53;82.32
11605;BME280;5858;43.076;25.626;2024-03-02T14:21:18;98795.72;;;12.12;82.07
11605;BME280;5858;43.076;25.626;2024-03-02T14:23:51;98740.19;;;11.73;81.07
11605;BME280;5858;43.076;25.626;2024-03-02T14:26:19;98840.09;;;12.27;80.72
11605;BME280;5858;43.076;25.626;2024-03-02T14:28:53;98745.94;;;11.63;81.47
11605;BME280;5858;43.076;25.626;2024-03-02T14:31:34;98736.84;;;11.38;81.66
11605;BME280;5858;43.076;25.626;2024-03-02T14:34:04;98716.59;;;11.28;81.94
11605;BME280;5858;43.076;25.626;2024-03-02T14:36:38;98789.66;;;11.70;82.34
11605;BME280;5858;43.076;25.626;2024-03-02T14:39:40;98904.06;;;12.24;82.47
11605;BME280;5858;43.076;25.626;2024-03-02T14:42:20;98884.44;;;12.04;82.12
11605;BME280;5858;43.076;25.626;2024-03-02T14:45:08;98905.47;;;12.07;82.67
11605;BME280;5858;43.076;25.626;2024-03-02T14:47:46;98903.41;;;12.15;83.05
11605;BME280;5858;43.076;25.626;2024-03-02T14:50:27;98851.31;;;11.77;83.18
11605;BME280;5858;43.076;25.626;2024-03-02T14:52:54;98809.75;;;11.33;83.37
11605;BME280;5858;43.076;25.626;2024-03-02T14:55:25;98793.63;;;11.20;83.55
11605;BME280;5858;43.076;25.626;2024-03-02T14:57:53;98859.53;;;11.68;83.47
11605;BME280;5858;43.076;25.626;2024-03-02T15:00:20;98888.94;;;11.90;82.91
11605;BME280;5858;43.076;25.626;2024-03-02T15:02:48;98779.38;;;11.06;82.84
11605;BME280;5858;43.076;25.626;2024-03-02T15:05:22;98855.38;;;11.53;83.92
11605;BME280;5858;43.076;25.626;2024-03-02T15:08:12;98922.16;;;12.02;83.86
11605;BME280;5858;43.076;25.626;2024-03-02T15:10:44;98880.06;;;11.83;83.62
11605;BME280;5858;43.076;25.626;2024-03-02T15:13:12;98925.66;;;11.89;83.87
11605;BME280;5858;43.076;25.626;2024-03-02T15:15:42;98937.00;;;11.91;84.61
11605;BME280;5858;43.076;25.626;2024-03-02T15:18:10;98745.19;;;10.67;84.64
11605;BME280;5858;43.076;25.626;2024-03-02T15:20:37;98877.63;;;11.53;85.45
11605;BME280;5858;43.076;25.626;2024-03-02T15:23:10;98886.25;;;11.42;85.87
11605;BME280;5858;43.076;25.626;2024-03-02T15:25:45;98832.25;;;10.97;86.12
11605;BME280;5858;43.076;25.626;2024-03-02T15:28:21;98788.63;;;10.69;86.53
11605;BME280;5858;43.076;25.626;2024-03-02T15:30:49;98873.56;;;11.23;86.97
11605;BME280;5858;43.076;25.626;2024-03-02T15:33:48;98950.66;;;11.68;87.17
11605;BME280;5858;43.076;25.626;2024-03-02T15:36:23;98977.66;;;11.67;87.47
11605;BME280;5858;43.076;25.626;2024-03-02T15:38:55;98929.38;;;11.54;87.67
11605;BME280;5858;43.076;25.626;2024-03-02T15:41:35;98768.88;;;10.35;87.87
11605;BME280;5858;43.076;25.626;2024-03-02T15:44:06;98953.50;;;11.54;88.73
11605;BME280;5858;43.076;25.626;2024-03-02T15:46:49;98955.75;;;11.50;88.88
11605;BME280;5858;43.076;25.626;2024-03-02T15:49:24;98792.94;;;10.35;88.83
11605;BME280;5858;43.076;25.626;2024-03-02T15:51:59;98968.50;;;11.48;89.17
11605;BME280;5858;43.076;25.626;2024-03-02T15:54:38;98800.38;;;10.40;88.60
11605;BME280;5858;43.076;25.626;2024-03-02T15:57:11;98977.47;;;11.34;88.58
11605;BME280;5858;43.076;25.626;2024-03-02T16:03:19;98858.97;;;10.35;88.80
11605;BME280;5858;43.076;25.626;2024-03-02T16:05:47;98816.00;;;10.15;89.34
11605;BME280;5858;43.076;25.626;2024-03-02T16:08:16;98971.16;;;11.14;89.30
11605;BME280;5858;43.076;25.626;2024-03-02T16:10:45;98934.44;;;10.80;89.06
11605;BME280;5858;43.076;25.626;2024-03-02T16:13:14;98851.91;;;10.27;88.76
11605;BME280;5858;43.076;25.626;2024-03-02T16:15:42;98878.91;;;10.32;88.95
11605;BME280;5858;43.076;25.626;2024-03-02T16:18:43;98987.75;;;11.02;89.75
11605;BME280;5858;43.076;25.626;2024-03-02T16:21:13;98837.50;;;10.07;89.96
11605;BME280;5858;43.076;25.626;2024-03-02T16:23:43;98831.66;;;9.97;90.60
11605;BME280;5858;43.076;25.626;2024-03-02T16:26:17;98879.41;;;10.43;89.27
11605;BME280;5858;43.076;25.626;2024-03-02T16:28:53;98833.25;;;10.13;89.47
11605;BME280;5858;43.076;25.626;2024-03-02T16:31:35;98841.91;;;9.93;90.67
11605;BME280;5858;43.076;25.626;2024-03-02T16:34:03;98893.34;;;10.38;90.00
11605;BME280;5858;43.076;25.626;2024-03-02T16:40:10;99004.91;;;11.08;90.05
11605;BME280;5858;43.076;25.626;2024-03-02T16:42:38;98942.50;;;10.37;89.67
11605;BME280;5858;43.076;25.626;2024-03-02T16:45:18;99008.34;;;11.02;90.09
11605;BME280;5858;43.076;25.626;2024-03-02T16:47:47;98984.47;;;10.79;90.05
11605;BME280;5858;43.076;25.626;2024-03-02T16:50:30;99053.09;;;11.08;89.54
11605;BME280;5858;43.076;25.626;2024-03-02T16:53:17;98933.25;;;10.39;89.59
11605;BME280;5858;43.076;25.626;2024-03-02T16:55:54;98926.25;;;10.38;89.67
11605;BME280;5858;43.076;25.626;2024-03-02T16:58:35;98986.50;;;10.77;90.22
11605;BME280;5858;43.076;25.626;2024-03-02T17:01:14;98884.34;;;10.03;89.81
11605;BME280;5858;43.076;25.626;2024-03-02T17:04:01;98869.91;;;9.97;90.51
11605;BME280;5858;43.076;25.626;2024-03-02T17:06:35;99031.03;;;11.06;89.76
11605;BME280;5858;43.076;25.626;2024-03-02T17:09:06;98938.44;;;10.41;89.96
11605;BME280;5858;43.076;25.626;2024-03-02T17:11:49;99029.81;;;11.09;89.97
11605;BME280;5858;43.076;25.626;2024-03-02T17:17:21;98958.16;;;10.40;90.14
11605;BME280;5858;43.076;25.626;2024-03-02T17:20:10;99058.63;;;11.07;90.22
11605;BME280;5858;43.076;25.626;2024-03-02T17:23:20;98990.84;;;10.78;89.94
11605;BME280;5858;43.076;25.626;2024-03-02T17:26:15;98947.81;;;10.52;89.48
11605;BME280;5858;43.076;25.626;2024-03-02T17:29:02;98879.97;;;10.17;89.31
11605;BME280;5858;43.076;25.626;2024-03-02T17:31:33;99049.41;;;11.09;90.10
11605;BME280;5858;43.076;25.626;2024-03-02T17:34:03;99026.31;;;10.87;90.10
11605;BME280;5858;43.076;25.626;2024-03-02T17:36:38;98906.38;;;10.05;90.09
11605;BME280;5858;43.076;25.626;2024-03-02T17:39:32;99049.47;;;10.94;90.53
11605;BME280;5858;43.076;25.626;2024-03-02T17:42:08;99066.66;;;10.85;91.26
11605;BME280;5858;43.076;25.626;2024-03-02T17:44:42;98882.03;;;9.78;91.32
11605;BME280;5858;43.076;25.626;2024-03-02T17:47:55;98964.22;;;10.13;91.74
11605;BME280;5858;43.076;25.626;2024-03-02T17:54:03;98900.66;;;9.72;92.23
11605;BME280;5858;43.076;25.626;2024-03-02T17:56:36;99053.47;;;10.84;92.38
11605;BME280;5858;43.076;25.626;2024-03-02T17:59:12;99016.41;;;10.59;92.36
11605;BME280;5858;43.076;25.626;2024-03-02T18:02:17;99054.50;;;10.83;92.81
11605;BME280;5858;43.076;25.626;2024-03-02T18:05:01;98999.41;;;10.46;92.87
11605;BME280;5858;43.076;25.626;2024-03-02T18:10:18;99024.19;;;10.39;94.55
11605;BME280;5858;43.076;25.626;2024-03-02T18:13:00;99059.28;;;10.66;94.16
11605;BME280;5858;43.076;25.626;2024-03-02T18:15:32;99054.81;;;10.73;93.84
11605;BME280;5858;43.076;25.626;2024-03-02T18:18:09;98957.63;;;10.08;93.90
11605;BME280;5858;43.076;25.626;2024-03-02T18:23:25;98936.34;;;10.00;93.61
11605;BME280;5858;43.076;25.626;2024-03-02T18:26:07;98891.75;;;9.65;93.82
11605;BME280;5858;43.076;25.626;2024-03-02T18:28:45;98923.97;;;9.63;94.86
11605;BME280;5858;43.076;25.626;2024-03-02T18:31:12;99065.69;;;10.50;95.27
11605;BME280;5858;43.076;25.626;2024-03-02T18:33:48;98976.00;;;9.82;95.34
11605;BME280;5858;43.076;25.626;2024-03-02T18:36:15;99091.44;;;10.51;95.73
11605;BME280;5858;43.076;25.626;2024-03-02T18:38:49;98951.44;;;9.57;95.60
11605;BME280;5858;43.076;25.626;2024-03-02T18:48:10;99010.69;;;10.12;95.86
11605;BME280;5858;43.076;25.626;2024-03-02T18:50:38;98951.03;;;9.75;94.74
11605;BME280;5858;43.076;25.626;2024-03-02T18:56:44;98958.63;;;9.57;95.39
11605;BME280;5858;43.076;25.626;2024-03-02T18:59:38;98925.09;;;9.39;95.51
11605;BME280;5858;43.076;25.626;2024-03-02T19:02:07;99090.41;;;10.52;95.22
11605;BME280;5858;43.076;25.626;2024-03-02T19:04:48;99107.03;;;10.48;95.13
11605;BME280;5858;43.076;25.626;2024-03-02T19:07:24;99019.91;;;10.09;94.98
11605;BME280;5858;43.076;25.626;2024-03-02T19:13:37;98912.69;;;9.32;95.35
11605;BME280;5858;43.076;25.626;2024-03-02T19:16:26;98917.19;;;9.46;95.06
11605;BME280;5858;43.076;25.626;2024-03-02T19:22:57;98923.16;;;9.33;95.39
11605;BME280;5858;43.076;25.626;2024-03-02T19:25:42;99041.56;;;10.14;95.35
11605;BME280;5858;43.076;25.626;2024-03-02T19:31:47;99083.72;;;10.42;95.78
11605;BME280;5858;43.076;25.626;2024-03-02T19:32:15;98923.06;;;9.56;95.10
11605;BME280;5858;43.076;25.626;2024-03-02T19:34:51;99033.38;;;10.16;95.08
11605;BME280;5858;43.076;25.626;2024-03-02T19:37:20;98955.94;;;9.71;95.42
11605;BME280;5858;43.076;25.626;2024-03-02T21:18:45;99078.06;;;10.36;96.04
11605;BME280;5858;43.076;25.626;2024-03-02T21:21:28;99022.16;;;9.76;95.99
11605;BME280;5858;43.076;25.626;2024-03-02T21:47:23;99076.31;;;10.14;97.75
11605;BME280;5858;43.076;25.626;2024-03-02T21:51:03;99043.34;;;9.77;97.54
11605;BME280;5858;43.076;25.626;2024-03-02T21:53:46;99100.22;;;10.30;97.28
11605;BME280;5858;43.076;25.626;2024-03-02T21:56:44;99101.78;;;10.25;96.85
11605;BME280;5858;43.076;25.626;2024-03-02T21:59:19;99077.59;;;10.33;96.41
11605;BME280;5858;43.076;25.626;2024-03-02T22:02:38;99080.28;;;10.18;97.11
11605;BME280;5858;43.076;25.626;2024-03-02T22:08:53;98911.78;;;9.10;96.47
11605;BME280;5858;43.076;25.626;2024-03-02T22:14:44;98963.97;;;9.57;96.56
11605;BME280;5858;43.076;25.626;2024-03-02T22:17:39;98960.66;;;9.55;96.25
11605;BME280;5858;43.076;25.626;2024-03-02T22:20:24;99082.44;;;10.23;96.70
11605;BME280;5858;43.076;25.626;2024-03-02T22:23:07;99040.31;;;9.81;96.84
11605;BME280;5858;43.076;25.626;2024-03-02T22:25:38;98980.38;;;9.54;96.67
11605;BME280;5858;43.076;25.626;2024-03-02T22:28:06;98971.25;;;9.48;97.24
11605;BME280;5858;43.076;25.626;2024-03-02T22:34:09;98906.84;;;8.84;96.81
11605;BME280;5858;43.076;25.626;2024-03-02T22:36:59;98911.38;;;8.83;97.23
11605;BME280;5858;43.076;25.626;2024-03-02T22:43:25;98941.53;;;8.84;98.25
11605;BME280;5858;43.076;25.626;2024-03-02T22:46:31;99082.78;;;9.90;98.08
11605;BME280;5858;43.076;25.626;2024-03-02T22:49:47;99034.44;;;9.56;98.22
11605;BME280;5858;43.076;25.626;2024-03-02T22:52:31;99026.50;;;9.48;98.45
11605;BME280;5858;43.076;25.626;2024-03-02T22:55:23;99094.47;;;9.89;98.86
11605;BME280;5858;43.076;25.626;2024-03-02T22:58:17;98940.72;;;8.83;98.67
11605;BME280;5858;43.076;25.626;2024-03-02T23:00:56;98930.50;;;8.87;98.62
11605;BME280;5858;43.076;25.626;2024-03-02T23:03:38;98995.78;;;9.14;98.55
11605;BME280;5858;43.076;25.626;2024-03-02T23:06:17;99100.75;;;9.82;99.50
11605;BME280;5858;43.076;25.626;2024-03-02T23:11:54;99119.84;;;9.93;98.93
11605;BME280;5858;43.076;25.626;2024-03-02T23:14:26;99054.97;;;9.70;99.03
11605;BME280;5858;43.076;25.626;2024-03-02T23:17:02;98996.34;;;9.24;98.67
11605;BME280;5858;43.076;25.626;2024-03-02T23:19:38;99097.25;;;9.81;99.48
11605;BME280;5858;43.076;25.626;2024-03-02T23:22:21;99098.53;;;9.85;99.66
11605;BME280;5858;43.076;25.626;2024-03-02T23:25:10;99101.59;;;9.82;99.66
11605;BME280;5858;43.076;25.626;2024-03-02T23:27:44;99103.50;;;9.88;99.37
11605;BME280;5858;43.076;25.626;2024-03-02T23:30:28;98922.13;;;8.75;99.14
11605;BME280;5858;43.076;25.626;2024-03-02T23:32:58;98960.19;;;9.07;98.86
11605;BME280;5858;43.076;25.626;2024-03-02T23:35:25;99095.97;;;9.77;99.13
11605;BME280;5858;43.076;25.626;2024-03-02T23:37:53;98981.91;;;9.33;98.58
11605;BME280;5858;43.076;25.626;2024-03-02T23:40:20;98994.53;;;9.39;98.52
11605;BME280;5858;43.076;25.626;2024-03-02T23:43:05;98987.25;;;9.33;97.62
11605;BME280;5858;43.076;25.626;2024-03-02T23:45:33;99083.41;;;9.92;98.04
11605;BME280;5858;43.076;25.626;2024-03-02T23:48:09;99052.75;;;9.88;97.36
11605;BME280;5858;43.076;25.626;2024-03-02T23:50:45;99066.19;;;9.80;98.21